Map

Track Data

SID SEASON NUMBER BASIN SUBBASIN NAME ISO_TIME NATURE LAT LON WMO_WIND WMO_PRES WMO_AGENCY TRACK_TYPE DIST2LAND LANDFALL IFLAG USA_AGENCY USA_ATCF_ID USA_LAT USA_LON USA_RECORD USA_STATUS USA_WIND USA_PRES USA_SSHS USA_R34_NE USA_R34_SE USA_R34_SW USA_R34_NW USA_R50_NE USA_R50_SE USA_R50_SW USA_R50_NW USA_R64_NE USA_R64_SE USA_R64_SW USA_R64_NW USA_POCI USA_ROCI USA_RMW USA_EYE TOKYO_LAT TOKYO_LON TOKYO_GRADE TOKYO_WIND TOKYO_PRES TOKYO_R50_DIR TOKYO_R50_LONG TOKYO_R50_SHORT TOKYO_R30_DIR TOKYO_R30_LONG TOKYO_R30_SHORT TOKYO_LAND CMA_LAT CMA_LON CMA_CAT CMA_WIND CMA_PRES HKO_LAT HKO_LON HKO_CAT HKO_WIND HKO_PRES NEWDELHI_LAT NEWDELHI_LON NEWDELHI_GRADE NEWDELHI_WIND NEWDELHI_PRES NEWDELHI_CI NEWDELHI_DP NEWDELHI_POCI REUNION_LAT REUNION_LON REUNION_TYPE REUNION_WIND REUNION_PRES REUNION_TNUM REUNION_CI REUNION_RMW REUNION_R34_NE REUNION_R34_SE REUNION_R34_SW REUNION_R34_NW REUNION_R50_NE REUNION_R50_SE REUNION_R50_SW REUNION_R50_NW REUNION_R64_NE REUNION_R64_SE REUNION_R64_SW REUNION_R64_NW BOM_LAT BOM_LON BOM_TYPE BOM_WIND BOM_PRES BOM_TNUM BOM_CI BOM_RMW BOM_R34_NE BOM_R34_SE BOM_R34_SW BOM_R34_NW BOM_R50_NE BOM_R50_SE BOM_R50_SW BOM_R50_NW BOM_R64_NE BOM_R64_SE BOM_R64_SW BOM_R64_NW BOM_ROCI BOM_POCI BOM_EYE BOM_POS_METHOD BOM_PRES_METHOD NADI_LAT NADI_LON NADI_CAT NADI_WIND NADI_PRES WELLINGTON_LAT WELLINGTON_LON WELLINGTON_WIND WELLINGTON_PRES DS824_LAT DS824_LON DS824_STAGE DS824_WIND DS824_PRES TD9636_LAT TD9636_LON TD9636_STAGE TD9636_WIND TD9636_PRES TD9635_LAT TD9635_LON TD9635_WIND TD9635_PRES TD9635_ROCI NEUMANN_LAT NEUMANN_LON NEUMANN_CLASS NEUMANN_WIND NEUMANN_PRES MLC_LAT MLC_LON MLC_CLASS MLC_WIND MLC_PRES USA_GUST BOM_GUST BOM_GUST_PER REUNION_GUST REUNION_GUST_PER USA_SEAHGT USA_SEARAD_NE USA_SEARAD_SE USA_SEARAD_SW USA_SEARAD_NW STORM_SPEED STORM_DIR
1926288N14095 1926 55 NI BB NOT_NAMED 1926-10-15 00:00:00 TS 14.2000 95.3000 main 167 145 _________O____ -1 14.2000 95.3000 TC 34 4 334
1926288N14095 1926 55 NI BB NOT_NAMED 1926-10-15 03:00:00 TS 14.3917 95.2000 main 145 112 _________PO___ -1 14.4875 95.1501 TC 36 14.2000 95.3000 2 5 335
1926288N14095 1926 55 NI BB NOT_NAMED 1926-10-15 06:00:00 TS 14.6888 95.0620 main 112 79 _________OP___ -1 14.8000 95.0000 TC 39 14.5219 95.1549 2 7 336
1926288N14095 1926 55 NI BB NOT_NAMED 1926-10-15 09:00:00 TS 15.0193 94.9176 main 79 49 _________PP___ -1 15.1500 94.8500 TC 42 14.8451 95.0077 2 7 337
1926288N14095 1926 55 NI BB NOT_NAMED 1926-10-15 12:00:00 TS 15.3353 94.7783 main 49 22 _________OP___ -1 15.5000 94.7000 TC 45 15.1706 94.8566 2 7 336
1926288N14095 1926 55 NI BB NOT_NAMED 1926-10-15 15:00:00 TS 15.6500 94.6250 main 15 0 _________PO___ -1 15.8000 94.5499 TC 45 15.5000 94.7000 3 7 335
1926288N14095 1926 55 NI BB NOT_NAMED 1926-10-15 18:00:00 TS 15.9666 94.4689 main 0 0 _________OP___ -1 16.1000 94.4000 TC 45 15.8331 94.5379 3 7 335
1926288N14095 1926 55 NI BB NOT_NAMED 1926-10-15 21:00:00 TS 16.3113 94.3101 main 0 0 _________PP___ -1 16.4575 94.2425 TC 45 16.1650 94.3776 3 7 337
1926288N14095 1926 55 NI BB NOT_NAMED 1926-10-16 00:00:00 TS 16.6447 94.1643 main 15 15 _________OP___ -1 16.8000 94.1000 TC 45 16.4894 94.2285 3 7 337
1926288N14095 1926 55 NI BB NOT_NAMED 1926-10-16 03:00:00 TS 16.9287 94.0425 main 42 42 _________PO___ -1 17.0575 93.9849 TC 45 16.8000 94.1000 3 6 339
1926288N14095 1926 55 NI BB NOT_NAMED 1926-10-16 06:00:00 TS 17.1926 93.9476 main 62 62 _________OP___ -1 17.3000 93.9000 TC 45 17.0853 93.9951 3 6 344
1926288N14095 1926 55 NI BB NOT_NAMED 1926-10-16 09:00:00 TS 17.4750 93.8774 main 71 67 _________PP___ -1 17.5925 93.8425 TC 45 17.3574 93.9123 3 6 348
1926288N14095 1926 55 NI BB NOT_NAMED 1926-10-16 12:00:00 TS 17.7630 93.8242 main 69 57 _________OP___ -1 17.9000 93.8000 TC 45 17.6259 93.8483 3 6 350
1926288N14095 1926 55 NI BB NOT_NAMED 1926-10-16 15:00:00 TS 18.0500 93.7713 main 54 54 _________PO___ -1 18.2000 93.7425 TC 45 17.9000 93.8000 3 6 350
1926288N14095 1926 55 NI BB NOT_NAMED 1926-10-16 18:00:00 TS 18.3382 93.7122 main 59 30 _________OP___ -1 18.5000 93.7000 TC 45 18.1765 93.7245 3 6 351
1926288N14095 1926 55 NI BB NOT_NAMED 1926-10-16 21:00:00 TS 18.6237 93.6692 main 30 10 _________PP___ -1 18.7850 93.6701 TC 45 18.4624 93.6682 3 6 357
1926288N14095 1926 55 NI BB NOT_NAMED 1926-10-17 00:00:00 TS 18.9335 93.6764 main 10 0 _________OP___ -1 19.1000 93.7000 TC 45 18.7671 93.6528 3 7 7
1926288N14095 1926 55 NI BB NOT_NAMED 1926-10-17 03:00:00 TS 19.2925 93.7563 main 10 0 _________PO___ -1 19.4850 93.8125 TC 45 19.1000 93.7000 3 8 16
1926288N14095 1926 55 NI BB NOT_NAMED 1926-10-17 06:00:00 TS 19.6876 93.9054 main 0 0 _________OP___ -1 19.9000 94.0000 TC 45 19.4752 93.8109 3 9 22
1926288N14095 1926 55 NI BB NOT_NAMED 1926-10-17 09:00:00 TS 20.0886 94.1039 main 0 0 _________PP___ -1 20.2999 94.2201 TC 45 19.8773 93.9876 3 9 28
1926288N14095 1926 55 NI BB NOT_NAMED 1926-10-17 12:00:00 TS 20.4954 94.3602 main 0 0 _________OP___ -1 20.7000 94.5000 TC 45 20.2908 94.2205 3 10 33
1926288N14095 1926 55 NI BB NOT_NAMED 1926-10-17 15:00:00 TS 20.9038 94.6675 main 0 0 _________PO___ -1 21.1075 94.8350 TC 41 20.7000 94.5000 3 10 37
1926288N14095 1926 55 NI BB NOT_NAMED 1926-10-17 18:00:00 TS 21.2674 94.9809 main 0 0 _________OP___ -1 21.5000 95.2000 TC 37 21.0929 94.8165 3 9 40
1926288N14095 1926 55 NI BB NOT_NAMED 1926-10-17 21:00:00 TS 21.6265 95.3186 main 0 0 _________PP___ -1 21.8601 95.5548 TC 33 21.4707 95.1611 3 9 42
1926288N14095 1926 55 NI BB NOT_NAMED 1926-10-18 00:00:00 TS 21.9588 95.6501 main 0 0 _________OP___ -1 22.2000 95.9000 TC 30 21.8382 95.5252 3 8 43
1926288N14095 1926 55 NI BB NOT_NAMED 1926-10-18 03:00:00 NR 22.2000 95.9000 main 0 __________O___ -1 TC 22.2000 95.9000 1 7 44

About IBTrACS Database

This database is a web-friendly format of International Best Track Archive for Climate Stewardship (IBTrACS), a global best track data archive curated by NOAA dating back to 1842.

Updated: 2021-10-08